Lake Grace, Australia
Current Conditions -  °F | °C
As of 2:00 AM on Thursday 29 Jan 2015 (Local Time) from YABA Reporting Station
Scattered Clouds Scattered Clouds  
Wind Chill: 72°   Ceiling: Unl
Heat Index: 72°   Visibility: 6mi
Dew Point: 57°   Wind: 10mph
Humidity: 60%   Direction: 60°ENE
Pressure: 29.74"   Gusts: NA
Location:  33.1°S, 118.47°E
Report Text: YABA 281800Z AUTO 06009KT 9999 // SCT105 22/14 Q1007
Loading
Personal Weather Stations






























Interactive Weather Map New forecast layout! Learn more

10-Day Weather Forecast

Advertisements
Track Severe Weather on mobile